sensor_id;sensor_type;location;lat;lon;timestamp;temperature;humidity
3067;DHT22;1544;48.834;9.194;2023-03-14T00:01:16;11.10;91.80
3067;DHT22;1544;48.834;9.194;2023-03-14T00:03:52;11.10;91.80
3067;DHT22;1544;48.834;9.194;2023-03-14T00:06:27;11.10;91.70
3067;DHT22;1544;48.834;9.194;2023-03-14T00:09:02;11.10;91.70
3067;DHT22;1544;48.834;9.194;2023-03-14T00:11:37;11.10;91.70
3067;DHT22;1544;48.834;9.194;2023-03-14T00:14:12;11.10;91.70
3067;DHT22;1544;48.834;9.194;2023-03-14T00:16:50;11.10;91.70
3067;DHT22;1544;48.834;9.194;2023-03-14T00:19:25;11.10;91.70
3067;DHT22;1544;48.834;9.194;2023-03-14T00:21:59;11.10;91.70
3067;DHT22;1544;48.834;9.194;2023-03-14T00:24:34;11.10;91.70
3067;DHT22;1544;48.834;9.194;2023-03-14T00:27:10;11.10;91.70
3067;DHT22;1544;48.834;9.194;2023-03-14T00:29:46;11.10;91.60
3067;DHT22;1544;48.834;9.194;2023-03-14T00:32:21;11.10;91.70
3067;DHT22;1544;48.834;9.194;2023-03-14T00:34:56;11.10;91.70
3067;DHT22;1544;48.834;9.194;2023-03-14T00:37:33;11.10;91.70
3067;DHT22;1544;48.834;9.194;2023-03-14T00:40:09;11.10;91.70
3067;DHT22;1544;48.834;9.194;2023-03-14T00:42:44;11.10;91.70
3067;DHT22;1544;48.834;9.194;2023-03-14T00:45:19;11.10;91.70
3067;DHT22;1544;48.834;9.194;2023-03-14T00:47:54;11.10;91.70
3067;DHT22;1544;48.834;9.194;2023-03-14T00:50:29;11.10;91.70
3067;DHT22;1544;48.834;9.194;2023-03-14T00:53:04;11.10;91.60
3067;DHT22;1544;48.834;9.194;2023-03-14T00:55:41;11.10;91.50
3067;DHT22;1544;48.834;9.194;2023-03-14T00:58:18;11.00;91.30
3067;DHT22;1544;48.834;9.194;2023-03-14T01:00:53;11.00;91.30
3067;DHT22;1544;48.834;9.194;2023-03-14T01:03:28;11.00;91.20
3067;DHT22;1544;48.834;9.194;2023-03-14T01:06:17;11.00;91.20
3067;DHT22;1544;48.834;9.194;2023-03-14T01:08:53;10.90;91.10
3067;DHT22;1544;48.834;9.194;2023-03-14T01:11:32;10.90;91.10
3067;DHT22;1544;48.834;9.194;2023-03-14T01:14:10;10.90;91.20
3067;DHT22;1544;48.834;9.194;2023-03-14T01:16:45;10.90;91.00
3067;DHT22;1544;48.834;9.194;2023-03-14T01:19:20;11.00;91.10
3067;DHT22;1544;48.834;9.194;2023-03-14T01:21:55;11.00;91.10
3067;DHT22;1544;48.834;9.194;2023-03-14T01:24:30;11.00;90.90
3067;DHT22;1544;48.834;9.194;2023-03-14T01:27:05;11.00;90.90
3067;DHT22;1544;48.834;9.194;2023-03-14T01:29:41;10.90;90.80
3067;DHT22;1544;48.834;9.194;2023-03-14T01:32:16;10.90;90.90
3067;DHT22;1544;48.834;9.194;2023-03-14T01:34:51;11.00;90.90
3067;DHT22;1544;48.834;9.194;2023-03-14T01:37:27;11.00;90.90
3067;DHT22;1544;48.834;9.194;2023-03-14T01:40:03;11.00;91.00
3067;DHT22;1544;48.834;9.194;2023-03-14T01:42:45;11.10;91.00
3067;DHT22;1544;48.834;9.194;2023-03-14T01:48:54;11.00;90.70
3067;DHT22;1544;48.834;9.194;2023-03-14T01:51:59;11.00;90.70
3067;DHT22;1544;48.834;9.194;2023-03-14T01:54:40;11.10;90.70
3067;DHT22;1544;48.834;9.194;2023-03-14T01:57:33;11.00;90.30
3067;DHT22;1544;48.834;9.194;2023-03-14T02:00:14;10.90;90.10
3067;DHT22;1544;48.834;9.194;2023-03-14T02:02:58;10.90;90.00
3067;DHT22;1544;48.834;9.194;2023-03-14T02:05:39;10.90;90.10
3067;DHT22;1544;48.834;9.194;2023-03-14T02:08:23;11.00;90.40
3067;DHT22;1544;48.834;9.194;2023-03-14T02:11:04;11.00;90.30
3067;DHT22;1544;48.834;9.194;2023-03-14T02:13:55;11.00;90.00
3067;DHT22;1544;48.834;9.194;2023-03-14T02:16:41;11.00;89.90
3067;DHT22;1544;48.834;9.194;2023-03-14T02:22:49;11.00;89.20
3067;DHT22;1544;48.834;9.194;2023-03-14T02:25:41;10.90;88.80
3067;DHT22;1544;48.834;9.194;2023-03-14T02:28:20;10.90;89.30
3067;DHT22;1544;48.834;9.194;2023-03-14T02:31:00;10.90;88.80
3067;DHT22;1544;48.834;9.194;2023-03-14T02:33:39;10.90;89.00
3067;DHT22;1544;48.834;9.194;2023-03-14T02:36:15;10.90;88.80
3067;DHT22;1544;48.834;9.194;2023-03-14T02:39:08;10.90;88.50
3067;DHT22;1544;48.834;9.194;2023-03-14T02:41:49;10.80;88.30
3067;DHT22;1544;48.834;9.194;2023-03-14T02:44:24;10.80;88.60
3067;DHT22;1544;48.834;9.194;2023-03-14T02:46:59;10.80;88.50
3067;DHT22;1544;48.834;9.194;2023-03-14T02:49:34;10.80;88.60
3067;DHT22;1544;48.834;9.194;2023-03-14T02:52:11;10.80;88.20
3067;DHT22;1544;48.834;9.194;2023-03-14T02:54:46;10.80;88.10
3067;DHT22;1544;48.834;9.194;2023-03-14T02:57:21;10.80;88.50
3067;DHT22;1544;48.834;9.194;2023-03-14T02:59:59;10.80;89.40
3067;DHT22;1544;48.834;9.194;2023-03-14T03:02:40;10.80;89.20
3067;DHT22;1544;48.834;9.194;2023-03-14T03:05:15;10.80;88.30
3067;DHT22;1544;48.834;9.194;2023-03-14T03:07:50;10.70;87.30
3067;DHT22;1544;48.834;9.194;2023-03-14T03:10:25;10.70;87.70
3067;DHT22;1544;48.834;9.194;2023-03-14T03:13:01;10.70;87.20
3067;DHT22;1544;48.834;9.194;2023-03-14T03:15:36;10.70;88.10
3067;DHT22;1544;48.834;9.194;2023-03-14T03:18:11;10.80;88.80
3067;DHT22;1544;48.834;9.194;2023-03-14T03:20:46;10.70;87.30
3067;DHT22;1544;48.834;9.194;2023-03-14T03:23:22;10.70;87.50
3067;DHT22;1544;48.834;9.194;2023-03-14T03:25:58;10.70;87.60
3067;DHT22;1544;48.834;9.194;2023-03-14T03:28:33;10.70;86.90
3067;DHT22;1544;48.834;9.194;2023-03-14T03:31:09;10.60;86.30
3067;DHT22;1544;48.834;9.194;2023-03-14T03:33:46;10.60;86.20
3067;DHT22;1544;48.834;9.194;2023-03-14T03:36:25;10.60;85.60
3067;DHT22;1544;48.834;9.194;2023-03-14T03:39:01;10.70;86.70
3067;DHT22;1544;48.834;9.194;2023-03-14T03:41:36;10.70;86.00
3067;DHT22;1544;48.834;9.194;2023-03-14T03:44:11;10.70;86.10
3067;DHT22;1544;48.834;9.194;2023-03-14T03:46:48;10.70;85.70
3067;DHT22;1544;48.834;9.194;2023-03-14T03:49:23;10.70;86.20
3067;DHT22;1544;48.834;9.194;2023-03-14T03:51:59;10.70;85.40
3067;DHT22;1544;48.834;9.194;2023-03-14T03:54:34;10.60;83.30
3067;DHT22;1544;48.834;9.194;2023-03-14T03:57:09;10.60;83.80
3067;DHT22;1544;48.834;9.194;2023-03-14T03:59:44;10.60;84.60
3067;DHT22;1544;48.834;9.194;2023-03-14T04:02:19;10.60;83.40
3067;DHT22;1544;48.834;9.194;2023-03-14T04:04:57;10.60;85.80
3067;DHT22;1544;48.834;9.194;2023-03-14T04:07:32;10.70;86.60
3067;DHT22;1544;48.834;9.194;2023-03-14T04:10:08;10.70;85.90
3067;DHT22;1544;48.834;9.194;2023-03-14T04:12:47;10.70;86.40
3067;DHT22;1544;48.834;9.194;2023-03-14T04:15:26;10.70;86.30
3067;DHT22;1544;48.834;9.194;2023-03-14T04:18:02;10.60;85.00
3067;DHT22;1544;48.834;9.194;2023-03-14T04:20:38;10.60;85.20
3067;DHT22;1544;48.834;9.194;2023-03-14T04:23:13;10.60;84.40
3067;DHT22;1544;48.834;9.194;2023-03-14T04:25:50;10.60;82.30
3067;DHT22;1544;48.834;9.194;2023-03-14T04:28:27;10.60;83.30
3067;DHT22;1544;48.834;9.194;2023-03-14T04:31:14;10.60;83.60
3067;DHT22;1544;48.834;9.194;2023-03-14T04:33:53;10.60;84.40
3067;DHT22;1544;48.834;9.194;2023-03-14T04:36:36;10.60;84.90
3067;DHT22;1544;48.834;9.194;2023-03-14T04:39:18;10.60;84.40
3067;DHT22;1544;48.834;9.194;2023-03-14T04:42:13;10.50;83.90
3067;DHT22;1544;48.834;9.194;2023-03-14T04:44:48;10.50;83.40
3067;DHT22;1544;48.834;9.194;2023-03-14T04:47:27;10.50;84.50
3067;DHT22;1544;48.834;9.194;2023-03-14T04:50:03;10.50;84.90
3067;DHT22;1544;48.834;9.194;2023-03-14T04:52:38;10.50;84.50
3067;DHT22;1544;48.834;9.194;2023-03-14T04:55:13;10.40;84.40
3067;DHT22;1544;48.834;9.194;2023-03-14T04:57:48;10.40;84.60
3067;DHT22;1544;48.834;9.194;2023-03-14T05:00:23;10.40;85.00
3067;DHT22;1544;48.834;9.194;2023-03-14T05:03:15;10.40;83.00
3067;DHT22;1544;48.834;9.194;2023-03-14T05:05:53;10.30;84.30
3067;DHT22;1544;48.834;9.194;2023-03-14T05:08:59;10.40;84.80
3067;DHT22;1544;48.834;9.194;2023-03-14T05:11:53;10.40;85.20
3067;DHT22;1544;48.834;9.194;2023-03-14T05:14:48;10.30;85.30
3067;DHT22;1544;48.834;9.194;2023-03-14T05:17:33;10.30;86.10
3067;DHT22;1544;48.834;9.194;2023-03-14T05:20:34;10.30;85.70
3067;DHT22;1544;48.834;9.194;2023-03-14T05:23:33;10.20;85.20
3067;DHT22;1544;48.834;9.194;2023-03-14T05:26:37;10.10;82.80
3067;DHT22;1544;48.834;9.194;2023-03-14T05:29:32;10.10;83.20
3067;DHT22;1544;48.834;9.194;2023-03-14T05:32:27;10.10;83.20
3067;DHT22;1544;48.834;9.194;2023-03-14T05:35:23;10.00;81.10
3067;DHT22;1544;48.834;9.194;2023-03-14T05:38:33;10.00;81.50
3067;DHT22;1544;48.834;9.194;2023-03-14T05:41:32;9.90;83.00
3067;DHT22;1544;48.834;9.194;2023-03-14T05:44:22;9.90;84.10
3067;DHT22;1544;48.834;9.194;2023-03-14T05:47:12;10.00;84.00
3067;DHT22;1544;48.834;9.194;2023-03-14T05:49:57;10.00;84.70
3067;DHT22;1544;48.834;9.194;2023-03-14T05:52:37;10.00;83.60
3067;DHT22;1544;48.834;9.194;2023-03-14T05:55:51;10.00;84.20
3067;DHT22;1544;48.834;9.194;2023-03-14T05:58:44;10.10;84.60
3067;DHT22;1544;48.834;9.194;2023-03-14T06:01:32;10.20;85.20
3067;DHT22;1544;48.834;9.194;2023-03-14T06:04:30;10.30;85.50
3067;DHT22;1544;48.834;9.194;2023-03-14T06:07:24;10.30;85.40
3067;DHT22;1544;48.834;9.194;2023-03-14T06:10:21;9.60;86.60
3067;DHT22;1544;48.834;9.194;2023-03-14T06:13:10;10.40;83.60
3067;DHT22;1544;48.834;9.194;2023-03-14T06:15:46;10.60;85.10
3067;DHT22;1544;48.834;9.194;2023-03-14T06:18:26;10.60;84.80
3067;DHT22;1544;48.834;9.194;2023-03-14T06:21:04;10.40;78.20
3067;DHT22;1544;48.834;9.194;2023-03-14T06:23:39;10.50;80.70
3067;DHT22;1544;48.834;9.194;2023-03-14T06:26:14;10.60;80.30
3067;DHT22;1544;48.834;9.194;2023-03-14T06:28:50;10.60;80.00
3067;DHT22;1544;48.834;9.194;2023-03-14T06:31:27;10.70;80.70
3067;DHT22;1544;48.834;9.194;2023-03-14T06:34:07;10.70;81.00
3067;DHT22;1544;48.834;9.194;2023-03-14T06:36:42;10.60;79.90
3067;DHT22;1544;48.834;9.194;2023-03-14T06:39:17;10.50;76.00
3067;DHT22;1544;48.834;9.194;2023-03-14T06:41:57;10.50;73.20
3067;DHT22;1544;48.834;9.194;2023-03-14T06:44:33;10.50;72.80
3067;DHT22;1544;48.834;9.194;2023-03-14T06:47:08;10.50;73.70
3067;DHT22;1544;48.834;9.194;2023-03-14T06:49:47;10.50;72.60
3067;DHT22;1544;48.834;9.194;2023-03-14T06:52:24;10.50;73.80
3067;DHT22;1544;48.834;9.194;2023-03-14T06:55:01;10.50;73.50
3067;DHT22;1544;48.834;9.194;2023-03-14T06:57:36;10.40;71.00
3067;DHT22;1544;48.834;9.194;2023-03-14T07:00:13;10.50;73.80
3067;DHT22;1544;48.834;9.194;2023-03-14T07:02:49;10.50;70.70
3067;DHT22;1544;48.834;9.194;2023-03-14T07:05:36;10.50;70.90
3067;DHT22;1544;48.834;9.194;2023-03-14T07:08:15;10.50;69.80
3067;DHT22;1544;48.834;9.194;2023-03-14T07:10:50;10.50;68.40
3067;DHT22;1544;48.834;9.194;2023-03-14T07:13:26;10.60;66.10
3067;DHT22;1544;48.834;9.194;2023-03-14T07:16:07;10.60;65.80
3067;DHT22;1544;48.834;9.194;2023-03-14T07:18:44;10.70;64.60
3067;DHT22;1544;48.834;9.194;2023-03-14T07:21:19;10.70;61.10
3067;DHT22;1544;48.834;9.194;2023-03-14T07:23:55;10.80;64.40
3067;DHT22;1544;48.834;9.194;2023-03-14T07:26:30;10.90;66.50
3067;DHT22;1544;48.834;9.194;2023-03-14T07:29:05;11.00;61.00
3067;DHT22;1544;48.834;9.194;2023-03-14T07:31:40;11.00;54.90
3067;DHT22;1544;48.834;9.194;2023-03-14T07:34:15;11.10;57.60
3067;DHT22;1544;48.834;9.194;2023-03-14T07:36:53;11.20;59.50
3067;DHT22;1544;48.834;9.194;2023-03-14T07:39:29;11.30;59.70
3067;DHT22;1544;48.834;9.194;2023-03-14T07:42:08;11.30;54.30
3067;DHT22;1544;48.834;9.194;2023-03-14T07:45:00;11.40;55.70
3067;DHT22;1544;48.834;9.194;2023-03-14T07:47:35;11.50;57.20
3067;DHT22;1544;48.834;9.194;2023-03-14T07:50:11;11.50;51.40
3067;DHT22;1544;48.834;9.194;2023-03-14T07:52:46;11.60;49.60
3067;DHT22;1544;48.834;9.194;2023-03-14T07:55:21;11.60;47.90
3067;DHT22;1544;48.834;9.194;2023-03-14T07:57:56;11.60;46.40
3067;DHT22;1544;48.834;9.194;2023-03-14T08:00:31;11.20;50.80
3067;DHT22;1544;48.834;9.194;2023-03-14T08:03:07;11.70;46.90
3067;DHT22;1544;48.834;9.194;2023-03-14T08:05:42;11.80;46.60
3067;DHT22;1544;48.834;9.194;2023-03-14T08:08:19;11.80;45.90
3067;DHT22;1544;48.834;9.194;2023-03-14T08:10:54;11.90;47.40
3067;DHT22;1544;48.834;9.194;2023-03-14T08:13:29;12.00;49.80
3067;DHT22;1544;48.834;9.194;2023-03-14T08:16:05;12.20;52.20
3067;DHT22;1544;48.834;9.194;2023-03-14T08:18:40;12.20;47.50
3067;DHT22;1544;48.834;9.194;2023-03-14T08:21:15;12.40;53.40
3067;DHT22;1544;48.834;9.194;2023-03-14T08:23:50;12.40;45.10
3067;DHT22;1544;48.834;9.194;2023-03-14T08:26:25;12.50;47.70
3067;DHT22;1544;48.834;9.194;2023-03-14T08:29:00;12.60;47.20
3067;DHT22;1544;48.834;9.194;2023-03-14T08:31:35;12.80;44.80
3067;DHT22;1544;48.834;9.194;2023-03-14T08:34:10;12.90;45.00
3067;DHT22;1544;48.834;9.194;2023-03-14T08:36:45;13.00;41.90
3067;DHT22;1544;48.834;9.194;2023-03-14T08:39:20;13.00;41.40
3067;DHT22;1544;48.834;9.194;2023-03-14T08:41:55;13.00;41.40
3067;DHT22;1544;48.834;9.194;2023-03-14T08:44:31;13.10;42.50
3067;DHT22;1544;48.834;9.194;2023-03-14T08:47:06;13.00;39.30
3067;DHT22;1544;48.834;9.194;2023-03-14T08:49:41;13.00;39.40
3067;DHT22;1544;48.834;9.194;2023-03-14T08:52:16;13.00;38.20
3067;DHT22;1544;48.834;9.194;2023-03-14T08:54:51;13.20;41.30
3067;DHT22;1544;48.834;9.194;2023-03-14T08:57:26;13.30;38.60
3067;DHT22;1544;48.834;9.194;2023-03-14T09:00:04;13.50;40.40
3067;DHT22;1544;48.834;9.194;2023-03-14T09:02:45;13.60;38.50
3067;DHT22;1544;48.834;9.194;2023-03-14T09:05:20;13.90;38.10
3067;DHT22;1544;48.834;9.194;2023-03-14T09:07:56;14.20;37.90
3067;DHT22;1544;48.834;9.194;2023-03-14T09:10:31;14.30;36.90
3067;DHT22;1544;48.834;9.194;2023-03-14T09:13:06;14.50;37.10
3067;DHT22;1544;48.834;9.194;2023-03-14T09:15:41;14.50;36.20
3067;DHT22;1544;48.834;9.194;2023-03-14T09:18:17;14.70;38.60
3067;DHT22;1544;48.834;9.194;2023-03-14T09:20:52;14.60;35.80
3067;DHT22;1544;48.834;9.194;2023-03-14T09:23:27;14.70;37.80
3067;DHT22;1544;48.834;9.194;2023-03-14T09:26:02;14.40;35.60
3067;DHT22;1544;48.834;9.194;2023-03-14T09:28:37;14.40;35.90
3067;DHT22;1544;48.834;9.194;2023-03-14T09:31:12;14.50;38.50
3067;DHT22;1544;48.834;9.194;2023-03-14T09:33:47;14.50;37.00
3067;DHT22;1544;48.834;9.194;2023-03-14T09:36:22;14.50;37.10
3067;DHT22;1544;48.834;9.194;2023-03-14T09:38:57;14.50;36.20
3067;DHT22;1544;48.834;9.194;2023-03-14T09:41:35;14.70;38.20
3067;DHT22;1544;48.834;9.194;2023-03-14T09:47:05;14.80;36.60
3067;DHT22;1544;48.834;9.194;2023-03-14T09:49:42;14.90;37.90
3067;DHT22;1544;48.834;9.194;2023-03-14T09:52:30;14.90;36.70
3067;DHT22;1544;48.834;9.194;2023-03-14T09:55:14;14.80;35.90
3067;DHT22;1544;48.834;9.194;2023-03-14T09:57:56;14.90;36.10
3067;DHT22;1544;48.834;9.194;2023-03-14T10:00:34;15.00;37.20
3067;DHT22;1544;48.834;9.194;2023-03-14T10:05:48;15.10;35.80
3067;DHT22;1544;48.834;9.194;2023-03-14T10:08:23;15.10;35.10
3067;DHT22;1544;48.834;9.194;2023-03-14T10:10:58;15.20;35.80
3067;DHT22;1544;48.834;9.194;2023-03-14T10:13:34;15.00;35.10
3067;DHT22;1544;48.834;9.194;2023-03-14T10:16:09;14.90;36.20
3067;DHT22;1544;48.834;9.194;2023-03-14T10:18:45;14.70;35.70
3067;DHT22;1544;48.834;9.194;2023-03-14T10:21:28;14.70;35.10
3067;DHT22;1544;48.834;9.194;2023-03-14T10:24:20;14.60;35.50
3067;DHT22;1544;48.834;9.194;2023-03-14T10:27:05;14.60;35.60
3067;DHT22;1544;48.834;9.194;2023-03-14T10:29:55;14.50;34.50
3067;DHT22;1544;48.834;9.194;2023-03-14T10:32:36;14.70;34.70
3067;DHT22;1544;48.834;9.194;2023-03-14T10:37:55;15.10;35.00
3067;DHT22;1544;48.834;9.194;2023-03-14T10:40:37;15.10;34.40
3067;DHT22;1544;48.834;9.194;2023-03-14T10:43:16;15.10;34.90
3067;DHT22;1544;48.834;9.194;2023-03-14T10:45:58;15.10;35.20
3067;DHT22;1544;48.834;9.194;2023-03-14T10:48:39;15.20;34.10
3067;DHT22;1544;48.834;9.194;2023-03-14T10:54:00;15.20;33.10
3067;DHT22;1544;48.834;9.194;2023-03-14T10:56:38;15.20;34.60
3067;DHT22;1544;48.834;9.194;2023-03-14T10:59:14;15.40;34.60
3067;DHT22;1544;48.834;9.194;2023-03-14T11:05:38;15.20;33.50
3067;DHT22;1544;48.834;9.194;2023-03-14T11:08:31;15.10;33.40
3067;DHT22;1544;48.834;9.194;2023-03-14T11:11:45;15.20;33.90
3067;DHT22;1544;48.834;9.194;2023-03-14T11:14:38;15.00;33.50
3067;DHT22;1544;48.834;9.194;2023-03-14T11:17:30;14.80;33.70
3067;DHT22;1544;48.834;9.194;2023-03-14T11:23:13;14.60;36.60
3067;DHT22;1544;48.834;9.194;2023-03-14T11:32:45;13.40;42.60
3067;DHT22;1544;48.834;9.194;2023-03-14T11:35:37;13.10;45.70
3067;DHT22;1544;48.834;9.194;2023-03-14T11:38:47;12.90;48.80
3067;DHT22;1544;48.834;9.194;2023-03-14T11:41:41;12.90;50.70
3067;DHT22;1544;48.834;9.194;2023-03-14T11:44:40;12.70;48.00
3067;DHT22;1544;48.834;9.194;2023-03-14T11:47:34;14.30;50.30
3067;DHT22;1544;48.834;9.194;2023-03-14T11:50:21;12.60;48.20
3067;DHT22;1544;48.834;9.194;2023-03-14T11:55:49;12.80;47.10
3067;DHT22;1544;48.834;9.194;2023-03-14T11:58:29;12.80;46.60
3067;DHT22;1544;48.834;9.194;2023-03-14T12:01:10;12.80;47.80
3067;DHT22;1544;48.834;9.194;2023-03-14T12:03:46;12.70;49.40
3067;DHT22;1544;48.834;9.194;2023-03-14T12:06:36;12.60;47.90
3067;DHT22;1544;48.834;9.194;2023-03-14T12:09:25;12.50;49.30
3067;DHT22;1544;48.834;9.194;2023-03-14T12:12:03;12.50;50.50
3067;DHT22;1544;48.834;9.194;2023-03-14T12:15:05;12.70;50.20
3067;DHT22;1544;48.834;9.194;2023-03-14T12:17:41;12.70;50.30
3067;DHT22;1544;48.834;9.194;2023-03-14T12:20:20;12.70;48.20
3067;DHT22;1544;48.834;9.194;2023-03-14T12:23:02;12.90;51.00
3067;DHT22;1544;48.834;9.194;2023-03-14T12:25:39;12.70;51.20
3067;DHT22;1544;48.834;9.194;2023-03-14T12:28:21;12.60;51.40
3067;DHT22;1544;48.834;9.194;2023-03-14T12:39:39;12.90;40.40
3067;DHT22;1544;48.834;9.194;2023-03-14T12:42:45;12.90;37.50
3067;DHT22;1544;48.834;9.194;2023-03-14T12:45:36;12.90;37.20
3067;DHT22;1544;48.834;9.194;2023-03-14T12:48:25;13.00;35.10
3067;DHT22;1544;48.834;9.194;2023-03-14T12:51:05;12.90;34.30
3067;DHT22;1544;48.834;9.194;2023-03-14T12:54:00;12.80;32.60
3067;DHT22;1544;48.834;9.194;2023-03-14T12:59:52;12.50;31.30
3067;DHT22;1544;48.834;9.194;2023-03-14T13:02:39;12.50;32.30
3067;DHT22;1544;48.834;9.194;2023-03-14T13:05:19;12.50;30.00
3067;DHT22;1544;48.834;9.194;2023-03-14T13:10:48;12.50;30.30
3067;DHT22;1544;48.834;9.194;2023-03-14T13:13:26;12.70;29.90
3067;DHT22;1544;48.834;9.194;2023-03-14T13:16:02;12.70;28.70
3067;DHT22;1544;48.834;9.194;2023-03-14T13:18:43;12.70;28.90
3067;DHT22;1544;48.834;9.194;2023-03-14T13:21:37;12.80;29.30
3067;DHT22;1544;48.834;9.194;2023-03-14T13:24:24;12.80;28.70
3067;DHT22;1544;48.834;9.194;2023-03-14T13:27:01;12.80;28.80
3067;DHT22;1544;48.834;9.194;2023-03-14T13:29:36;12.90;27.80
3067;DHT22;1544;48.834;9.194;2023-03-14T13:32:21;13.00;27.50
3067;DHT22;1544;48.834;9.194;2023-03-14T13:34:58;13.00;27.60
3067;DHT22;1544;48.834;9.194;2023-03-14T13:37:39;13.10;27.00
3067;DHT22;1544;48.834;9.194;2023-03-14T13:40:20;13.10;27.60
3067;DHT22;1544;48.834;9.194;2023-03-14T13:43:30;13.20;27.20
3067;DHT22;1544;48.834;9.194;2023-03-14T13:46:21;13.20;26.30
3067;DHT22;1544;48.834;9.194;2023-03-14T13:49:00;12.90;26.70
3067;DHT22;1544;48.834;9.194;2023-03-14T13:51:39;12.80;25.90
3067;DHT22;1544;48.834;9.194;2023-03-14T13:54:16;12.60;26.90
3067;DHT22;1544;48.834;9.194;2023-03-14T13:57:03;12.60;27.00
3067;DHT22;1544;48.834;9.194;2023-03-14T13:59:39;13.80;27.50
3067;DHT22;1544;48.834;9.194;2023-03-14T14:02:15;12.50;26.30
3067;DHT22;1544;48.834;9.194;2023-03-14T14:04:52;12.40;26.20
3067;DHT22;1544;48.834;9.194;2023-03-14T14:07:27;12.50;26.30
3067;DHT22;1544;48.834;9.194;2023-03-14T14:10:03;12.50;26.30
3067;DHT22;1544;48.834;9.194;2023-03-14T14:13:00;12.30;26.60
3067;DHT22;1544;48.834;9.194;2023-03-14T14:15:43;12.30;24.70
3067;DHT22;1544;48.834;9.194;2023-03-14T14:18:23;12.10;24.30
3067;DHT22;1544;48.834;9.194;2023-03-14T14:21:01;11.90;24.00
3067;DHT22;1544;48.834;9.194;2023-03-14T14:23:37;11.60;24.40
3067;DHT22;1544;48.834;9.194;2023-03-14T14:26:18;11.60;24.40
3067;DHT22;1544;48.834;9.194;2023-03-14T14:29:05;11.60;24.50
3067;DHT22;1544;48.834;9.194;2023-03-14T14:31:43;11.60;24.90
3067;DHT22;1544;48.834;9.194;2023-03-14T14:34:19;11.60;24.80
3067;DHT22;1544;48.834;9.194;2023-03-14T14:36:54;11.50;24.90
3067;DHT22;1544;48.834;9.194;2023-03-14T14:39:30;11.40;24.90
3067;DHT22;1544;48.834;9.194;2023-03-14T14:42:14;11.30;25.30
3067;DHT22;1544;48.834;9.194;2023-03-14T14:44:52;11.30;25.20
3067;DHT22;1544;48.834;9.194;2023-03-14T14:47:28;11.30;25.10
3067;DHT22;1544;48.834;9.194;2023-03-14T14:50:04;11.30;25.50
3067;DHT22;1544;48.834;9.194;2023-03-14T14:53:00;11.30;25.10
3067;DHT22;1544;48.834;9.194;2023-03-14T14:55:40;11.30;25.40
3067;DHT22;1544;48.834;9.194;2023-03-14T14:58:35;11.30;25.30
3067;DHT22;1544;48.834;9.194;2023-03-14T15:01:20;11.30;25.60
3067;DHT22;1544;48.834;9.194;2023-03-14T15:03:58;11.30;25.60
3067;DHT22;1544;48.834;9.194;2023-03-14T15:06:34;11.30;25.20
3067;DHT22;1544;48.834;9.194;2023-03-14T15:09:11;11.30;25.10
3067;DHT22;1544;48.834;9.194;2023-03-14T15:11:47;11.30;25.40
3067;DHT22;1544;48.834;9.194;2023-03-14T15:14:22;11.20;25.50
3067;DHT22;1544;48.834;9.194;2023-03-14T15:16:57;11.40;25.60
3067;DHT22;1544;48.834;9.194;2023-03-14T15:19:32;11.60;25.40
3067;DHT22;1544;48.834;9.194;2023-03-14T15:22:12;11.90;25.30
3067;DHT22;1544;48.834;9.194;2023-03-14T15:24:48;12.10;25.30
3067;DHT22;1544;48.834;9.194;2023-03-14T15:27:30;12.20;25.30
3067;DHT22;1544;48.834;9.194;2023-03-14T15:30:08;12.20;25.40
3067;DHT22;1544;48.834;9.194;2023-03-14T15:32:47;12.20;25.00
3067;DHT22;1544;48.834;9.194;2023-03-14T15:35:22;12.10;25.00
3067;DHT22;1544;48.834;9.194;2023-03-14T15:37:57;11.90;25.00
3067;DHT22;1544;48.834;9.194;2023-03-14T15:40:32;11.80;25.20
3067;DHT22;1544;48.834;9.194;2023-03-14T15:43:07;12.00;25.30
3067;DHT22;1544;48.834;9.194;2023-03-14T15:45:42;12.10;25.60
3067;DHT22;1544;48.834;9.194;2023-03-14T15:48:19;12.30;25.50
3067;DHT22;1544;48.834;9.194;2023-03-14T15:50:55;12.40;25.20
3067;DHT22;1544;48.834;9.194;2023-03-14T15:53:30;12.30;25.00
3067;DHT22;1544;48.834;9.194;2023-03-14T15:56:07;12.20;25.10
3067;DHT22;1544;48.834;9.194;2023-03-14T15:58:45;12.20;25.10
3067;DHT22;1544;48.834;9.194;2023-03-14T16:01:23;12.20;25.80
3067;DHT22;1544;48.834;9.194;2023-03-14T16:03:58;12.30;25.80
3067;DHT22;1544;48.834;9.194;2023-03-14T16:06:34;12.50;25.70
3067;DHT22;1544;48.834;9.194;2023-03-14T16:09:11;12.70;25.50
3067;DHT22;1544;48.834;9.194;2023-03-14T16:11:47;12.70;25.60
3067;DHT22;1544;48.834;9.194;2023-03-14T16:14:22;12.70;25.60
3067;DHT22;1544;48.834;9.194;2023-03-14T16:16:58;12.40;25.50
3067;DHT22;1544;48.834;9.194;2023-03-14T16:19:33;12.30;25.30
3067;DHT22;1544;48.834;9.194;2023-03-14T16:22:09;12.10;25.40
3067;DHT22;1544;48.834;9.194;2023-03-14T16:24:44;12.00;25.60
3067;DHT22;1544;48.834;9.194;2023-03-14T16:27:19;11.90;25.50
3067;DHT22;1544;48.834;9.194;2023-03-14T16:29:54;11.70;25.90
3067;DHT22;1544;48.834;9.194;2023-03-14T16:32:29;11.50;25.90
3067;DHT22;1544;48.834;9.194;2023-03-14T16:35:05;11.30;25.90
3067;DHT22;1544;48.834;9.194;2023-03-14T16:37:40;11.20;26.20
3067;DHT22;1544;48.834;9.194;2023-03-14T16:40:15;11.10;26.70
3067;DHT22;1544;48.834;9.194;2023-03-14T16:42:50;11.00;26.40
3067;DHT22;1544;48.834;9.194;2023-03-14T16:45:49;10.90;26.70
3067;DHT22;1544;48.834;9.194;2023-03-14T16:48:25;10.70;26.60
3067;DHT22;1544;48.834;9.194;2023-03-14T16:51:00;10.70;26.80
3067;DHT22;1544;48.834;9.194;2023-03-14T16:53:36;10.60;26.80
3067;DHT22;1544;48.834;9.194;2023-03-14T16:56:11;10.50;27.00
3067;DHT22;1544;48.834;9.194;2023-03-14T16:58:48;10.50;27.20
3067;DHT22;1544;48.834;9.194;2023-03-14T17:01:23;10.40;27.00
3067;DHT22;1544;48.834;9.194;2023-03-14T17:03:58;10.40;27.20
3067;DHT22;1544;48.834;9.194;2023-03-14T17:06:34;10.40;27.40
3067;DHT22;1544;48.834;9.194;2023-03-14T17:09:10;10.30;27.60
3067;DHT22;1544;48.834;9.194;2023-03-14T17:11:46;10.30;28.70
3067;DHT22;1544;48.834;9.194;2023-03-14T17:14:21;10.10;29.30
3067;DHT22;1544;48.834;9.194;2023-03-14T17:16:56;9.90;30.60
3067;DHT22;1544;48.834;9.194;2023-03-14T17:19:31;9.80;31.30
3067;DHT22;1544;48.834;9.194;2023-03-14T17:22:07;9.70;31.80
3067;DHT22;1544;48.834;9.194;2023-03-14T17:24:57;9.60;32.30
3067;DHT22;1544;48.834;9.194;2023-03-14T17:27:32;9.40;32.50
3067;DHT22;1544;48.834;9.194;2023-03-14T17:30:10;9.30;32.70
3067;DHT22;1544;48.834;9.194;2023-03-14T17:32:45;9.20;32.60
3067;DHT22;1544;48.834;9.194;2023-03-14T17:35:20;9.20;32.90
3067;DHT22;1544;48.834;9.194;2023-03-14T17:37:55;9.00;33.50
3067;DHT22;1544;48.834;9.194;2023-03-14T17:40:30;8.90;33.90
3067;DHT22;1544;48.834;9.194;2023-03-14T17:43:06;8.90;34.60
3067;DHT22;1544;48.834;9.194;2023-03-14T17:45:43;8.80;34.90
3067;DHT22;1544;48.834;9.194;2023-03-14T17:48:18;8.70;35.10
3067;DHT22;1544;48.834;9.194;2023-03-14T17:50:53;8.60;35.30
3067;DHT22;1544;48.834;9.194;2023-03-14T17:53:31;8.60;35.20
3067;DHT22;1544;48.834;9.194;2023-03-14T17:56:07;8.60;35.30
3067;DHT22;1544;48.834;9.194;2023-03-14T17:58:42;8.60;35.70
3067;DHT22;1544;48.834;9.194;2023-03-14T18:01:18;8.50;35.60
3067;DHT22;1544;48.834;9.194;2023-03-14T18:03:53;8.50;35.80
3067;DHT22;1544;48.834;9.194;2023-03-14T18:06:30;8.50;35.90
3067;DHT22;1544;48.834;9.194;2023-03-14T18:09:05;8.50;36.10
3067;DHT22;1544;48.834;9.194;2023-03-14T18:11:40;8.50;36.30